Time;durP1;ratioP1;P1;durP2;ratioP2;P2;SDS_P1;SDS_P2;PMS_P1;PMS_P2;Temp;Humidity;BMP_temperature;BMP_pressure;BME280_temperature;BME280_humidity;BME280_pressure;Samples;Min_cycle;Max_cycle;Signal;HPM_P1;HPM_P2
2023/03/28 00:00:55;;;;;;;18.48;1.42;;;0.60;99.90;;;;;;5114464;28;20090;-74
2023/03/28 00:03:21;;;;;;;16.33;2.10;;;0.70;99.90;;;;;;5096052;28;20051;-74
2023/03/28 00:05:48;;;;;;;11.75;1.00;;;0.80;99.90;;;;;;5079813;28;20066;-74
2023/03/28 00:08:15;;;;;;;14.75;1.55;;;0.80;99.90;;;;;;5095654;28;20440;-74
2023/03/28 00:10:41;;;;;;;15.80;1.63;;;0.80;99.90;;;;;;5114593;28;20047;-74
2023/03/28 00:13:08;;;;;;;19.55;1.20;;;0.70;99.90;;;;;;5113900;28;20486;-74
2023/03/28 00:15:37;;;;;;;18.02;1.15;;;0.80;99.90;;;;;;5095681;28;20572;-73
2023/03/28 00:18:04;;;;;;;23.63;1.50;;;0.80;99.90;;;;;;5078649;28;20040;-73
2023/03/28 00:20:30;;;;;;;;;;;0.90;99.90;;;;;;5096452;28;20386;-73
2023/03/28 00:22:57;;;;;;;17.15;1.58;;;1.00;99.90;;;;;;5114328;28;19920;-73
2023/03/28 00:25:23;;;;;;;23.48;3.72;;;1.20;99.90;;;;;;5114175;28;20122;-72
2023/03/28 00:27:49;;;;;;;19.10;1.33;;;1.20;99.90;;;;;;5113300;28;20063;-74
2023/03/28 00:30:15;;;;;;;20.23;1.30;;;1.30;99.90;;;;;;5095772;28;20475;-73
2023/03/28 00:32:41;;;;;;;11.98;1.10;;;1.20;99.90;;;;;;5113856;28;20100;-74
2023/03/28 00:35:08;;;;;;;11.23;1.13;;;1.30;99.90;;;;;;5113957;28;20050;-73
2023/03/28 00:37:34;;;;;;;20.00;1.30;;;1.20;99.90;;;;;;5114115;28;20433;-74
2023/03/28 00:40:00;;;;;;;12.15;1.00;;;1.20;99.90;;;;;;5096022;28;20043;-74
2023/03/28 00:42:26;;;;;;;12.63;0.98;;;1.00;99.90;;;;;;5096344;28;20055;-73
2023/03/28 00:44:56;;;;;;;15.07;1.90;;;1.00;99.90;;;;;;5095907;28;20080;-74
2023/03/28 00:47:39;;;;;;;16.13;0.90;;;0.90;99.90;;;;;;5113401;28;20097;-72
2023/03/28 00:50:19;;;;;;;18.40;0.85;;;0.80;99.90;;;;;;5095795;28;20051;-75
2023/03/28 00:53:01;;;;;;;14.15;1.20;;;0.70;99.90;;;;;;5113340;28;20046;-74
2023/03/28 00:55:36;;;;;;;12.18;1.42;;;0.70;99.90;;;;;;5096296;28;20051;-74
2023/03/28 00:58:06;;;;;;;21.00;0.90;;;0.60;99.90;;;;;;5095357;28;20441;-74
2023/03/28 01:00:33;;;;;;;21.75;2.08;;;0.60;99.90;;;;;;5094864;28;20038;-74
2023/03/28 01:03:01;;;;;;;11.93;1.17;;;0.60;99.90;;;;;;5095364;28;20110;-75
2023/03/28 01:05:31;;;;;;;17.42;1.88;;;0.60;99.90;;;;;;5113252;28;20051;-74
2023/03/28 01:08:04;;;;;;;16.23;1.77;;;0.50;99.90;;;;;;5113207;28;20040;-75
2023/03/28 01:10:32;;;;;;;18.92;1.42;;;0.40;99.90;;;;;;5114359;28;20053;-73
2023/03/28 01:12:59;;;;;;;16.33;1.10;;;0.40;99.90;;;;;;5117047;28;20058;-75
2023/03/28 01:15:25;;;;;;;18.23;1.85;;;0.40;99.90;;;;;;5083184;28;20044;-74
2023/03/28 01:17:52;;;;;;;16.63;1.52;;;0.40;99.90;;;;;;5117755;28;20472;-74
2023/03/28 01:20:50;;;;;;;16.85;1.30;;;0.40;99.90;;;;;;5116517;28;20609;-73
2023/03/28 01:23:37;;;;;;;9.38;0.85;;;0.30;99.90;;;;;;5099583;28;20059;-73
2023/03/28 01:26:15;;;;;;;16.73;1.40;;;0.30;99.90;;;;;;5117343;28;20090;-73
2023/03/28 01:28:56;;;;;;;14.82;1.20;;;0.20;99.90;;;;;;5097908;28;20134;-74
2023/03/28 01:31:49;;;;;;;13.80;1.73;;;0.20;99.90;;;;;;5098989;28;20044;-74
2023/03/28 01:34:33;;;;;;;15.45;1.30;;;0.10;99.90;;;;;;5098623;28;20043;-74
2023/03/28 01:37:25;;;;;;;14.60;1.00;;;0.00;99.90;;;;;;5116368;28;20527;-74
2023/03/28 01:39:59;;;;;;;17.45;1.88;;;0.00;99.90;;;;;;5116538;28;20051;-73
2023/03/28 01:42:43;;;;;;;18.08;1.63;;;-0.10;99.90;;;;;;5098725;28;20051;-74
2023/03/28 01:45:36;;;;;;;16.95;1.40;;;-0.10;99.90;;;;;;5117055;28;20052;-74
2023/03/28 01:48:02;;;;;;;17.00;1.27;;;-0.10;99.90;;;;;;5089998;28;20399;-73
2023/03/28 01:50:53;;;;;;;12.25;1.38;;;-0.20;99.90;;;;;;5081713;28;20043;-74
2023/03/28 01:53:34;;;;;;;14.35;1.35;;;-0.20;99.90;;;;;;5116267;28;20108;-74
2023/03/28 01:56:14;;;;;;;15.18;1.10;;;-0.20;99.90;;;;;;5116944;28;20059;-74
2023/03/28 01:59:01;;;;;;;16.77;1.00;;;-0.20;99.90;;;;;;5116537;28;20652;-75
2023/03/28 02:01:44;;;;;;;10.48;0.93;;;-0.20;99.90;;;;;;5097644;28;20058;-75
2023/03/28 02:04:19;;;;;;;19.67;1.70;;;-0.10;99.90;;;;;;5098196;28;20094;-75
2023/03/28 02:06:47;;;;;;;16.17;1.15;;;-0.10;99.90;;;;;;5115472;28;20375;-72
2023/03/28 02:09:14;;;;;;;12.07;1.60;;;-0.10;99.90;;;;;;5115075;28;20131;-74
2023/03/28 02:11:41;;;;;;;19.25;1.65;;;0.00;99.90;;;;;;5097872;28;20401;-72
2023/03/28 02:14:16;;;;;;;18.48;1.35;;;0.00;99.90;;;;;;5116070;28;20378;-74
2023/03/28 02:16:44;;;;;;;11.02;1.25;;;0.00;99.90;;;;;;5115736;28;20092;-72
2023/03/28 02:19:12;;;;;;;13.95;1.35;;;-0.10;99.90;;;;;;5114674;28;20060;-75
2023/03/28 02:21:53;;;;;;;20.25;1.75;;;-0.10;99.90;;;;;;5080820;28;20047;-72
2023/03/28 02:24:19;;;;;;;12.00;1.08;;;-0.20;99.90;;;;;;5097824;28;20043;-74
2023/03/28 02:26:45;;;;;;;26.30;1.60;;;-0.20;99.90;;;;;;5097321;28;20117;-73
2023/03/28 02:29:12;;;;;;;20.85;1.70;;;-0.20;99.90;;;;;;5097672;28;20043;-75
2023/03/28 02:31:38;;;;;;;16.38;1.15;;;-0.30;99.90;;;;;;5080545;28;20054;-72
2023/03/28 02:34:04;;;;;;;13.52;1.10;;;-0.30;99.90;;;;;;5097713;28;20047;-72
2023/03/28 02:36:47;;;;;;;14.35;1.15;;;-0.30;99.90;;;;;;5115870;28;20499;-73
2023/03/28 02:39:45;;;;;;;12.90;1.45;;;-0.40;99.90;;;;;;5080748;28;20050;-74
2023/03/28 02:42:30;;;;;;;14.35;1.27;;;-0.30;99.90;;;;;;5096403;28;20051;-74
2023/03/28 02:44:55;;;;;;;11.40;1.30;;;-0.40;99.90;;;;;;5097282;28;20043;-74
2023/03/28 02:47:29;;;;;;;8.55;1.00;;;-0.40;99.90;;;;;;5115234;28;20131;-75
2023/03/28 02:50:12;;;;;;;15.73;1.45;;;-0.50;99.90;;;;;;5115600;28;20097;-73
2023/03/28 02:53:05;;;;;;;16.25;1.13;;;-0.50;99.90;;;;;;5114820;28;20479;-74
2023/03/28 02:55:40;;;;;;;13.70;1.00;;;-0.50;99.90;;;;;;5115357;28;20090;-74
2023/03/28 02:58:15;;;;;;;13.65;1.02;;;-0.50;99.90;;;;;;5115879;28;20427;-73
2023/03/28 03:00:41;;;;;;;15.20;1.20;;;-0.60;99.90;;;;;;5097197;28;20548;-72
2023/03/28 03:03:09;;;;;;;11.95;1.35;;;-0.60;99.90;;;;;;5114840;28;20104;-75
2023/03/28 03:05:36;;;;;;;13.32;1.20;;;-0.60;99.90;;;;;;5080743;28;20047;-73
2023/03/28 03:08:02;;;;;;;23.23;1.67;;;-0.60;99.90;;;;;;5114630;28;20105;-75
2023/03/28 03:10:28;;;;;;;11.77;1.20;;;-0.60;99.90;;;;;;5115620;28;20454;-75
2023/03/28 03:12:54;;;;;;;12.32;1.40;;;-0.60;99.90;;;;;;5115155;28;20044;-75
2023/03/28 03:15:19;;;;;;;12.02;1.30;;;-0.60;99.90;;;;;;5115008;28;20048;-75
2023/03/28 03:17:45;;;;;;;15.52;1.08;;;-0.70;99.90;;;;;;5096537;28;20043;-74
2023/03/28 03:20:12;;;;;;;20.95;1.60;;;-0.70;99.90;;;;;;5079634;28;20048;-73
2023/03/28 03:22:38;;;;;;;18.33;1.33;;;-0.70;99.90;;;;;;5114459;28;20498;-74
2023/03/28 03:25:07;;;;;;;15.05;1.52;;;-0.70;99.90;;;;;;5113336;28;20055;-73
2023/03/28 03:27:35;;;;;;;10.15;1.23;;;-0.70;99.90;;;;;;5079706;28;20128;-74
2023/03/28 03:30:02;;;;;;;12.50;1.17;;;-0.70;99.90;;;;;;5096858;28;20051;-74
2023/03/28 03:32:27;;;;;;;17.50;1.15;;;-0.80;99.90;;;;;;5096796;28;20047;-74
2023/03/28 03:34:53;;;;;;;13.85;1.13;;;-0.80;99.90;;;;;;5045811;28;20551;-72
2023/03/28 03:37:19;;;;;;;16.77;1.52;;;-0.80;99.90;;;;;;5114243;28;20044;-74
2023/03/28 03:39:46;;;;;;;26.95;1.50;;;-0.80;99.90;;;;;;5095735;28;20391;-74
2023/03/28 03:42:12;;;;;;;13.20;1.17;;;-0.70;99.90;;;;;;5096547;28;20047;-74
2023/03/28 03:44:38;;;;;;;9.30;1.92;;;-0.80;99.90;;;;;;5096955;28;20375;-74
2023/03/28 03:47:04;;;;;;;18.50;2.05;;;-0.80;99.90;;;;;;5095518;28;20550;-74
2023/03/28 03:49:30;;;;;;;14.32;1.38;;;-0.80;99.90;;;;;;5114015;28;20372;-73
2023/03/28 03:51:56;;;;;;;20.50;1.90;;;-0.80;99.90;;;;;;5114845;28;20160;-73
2023/03/28 03:54:22;;;;;;;23.58;1.63;;;-0.80;99.90;;;;;;5095988;28;20471;-73
2023/03/28 03:56:48;;;;;;;17.98;1.30;;;-0.80;99.90;;;;;;5113039;28;20090;-74
2023/03/28 03:59:15;;;;;;;6.57;1.00;;;-0.80;99.90;;;;;;5079214;28;20535;-73
2023/03/28 04:01:42;;;;;;;19.23;1.60;;;-0.90;99.90;;;;;;5079264;28;20047;-73
2023/03/28 04:04:09;;;;;;;10.32;1.00;;;-0.80;99.90;;;;;;5113869;28;20043;-74
2023/03/28 04:06:37;;;;;;;31.90;2.67;;;-0.90;99.90;;;;;;5096264;28;20152;-73
2023/03/28 04:09:07;;;;;;;15.55;1.48;;;-0.80;99.90;;;;;;5113452;28;20471;-72
2023/03/28 04:11:34;;;;;;;16.90;1.38;;;-0.80;99.90;;;;;;5096747;28;20140;-72
2023/03/28 04:14:00;;;;;;;19.33;1.63;;;-0.80;99.90;;;;;;5095243;28;20546;-72
2023/03/28 04:16:26;;;;;;;14.60;1.73;;;-0.80;99.90;;;;;;5095736;28;20082;-73
2023/03/28 04:18:52;;;;;;;9.77;1.20;;;-0.80;99.90;;;;;;5113486;28;20047;-71
2023/03/28 04:21:26;;;;;;;19.95;2.00;;;-0.80;99.90;;;;;;5113794;28;20047;-74
2023/03/28 04:23:52;;;;;;;21.15;2.20;;;-0.80;99.90;;;;;;5113755;28;20047;-73
2023/03/28 04:26:24;;;;;;;22.55;1.77;;;-0.80;99.90;;;;;;5079033;28;20051;-74
2023/03/28 04:28:54;;;;;;;11.07;1.58;;;-0.80;99.90;;;;;;5113573;28;20051;-73
2023/03/28 04:31:21;;;;;;;19.25;2.30;;;-0.80;99.90;;;;;;5095637;28;20043;-74
2023/03/28 04:33:47;;;;;;;19.17;2.00;;;-0.70;99.90;;;;;;5096225;28;20052;-74
2023/03/28 04:36:17;;;;;;;19.38;3.28;;;-0.70;99.90;;;;;;5095468;28;20126;-74
2023/03/28 04:38:44;;;;;;;11.30;1.83;;;-0.60;99.90;;;;;;5079222;28;20044;-73
2023/03/28 04:41:12;;;;;;;16.63;2.15;;;-0.60;99.90;;;;;;5113552;28;20108;-74
2023/03/28 04:43:38;;;;;;;13.55;2.08;;;-0.50;99.90;;;;;;5095366;28;20043;-72
2023/03/28 04:46:04;;;;;;;9.82;1.33;;;-0.50;99.90;;;;;;5117814;28;20039;-72
2023/03/28 04:48:30;;;;;;;11.13;1.63;;;-0.40;99.90;;;;;;5117468;28;20146;-74
2023/03/28 04:50:55;;;;;;;15.73;1.77;;;-0.30;99.90;;;;;;5099507;28;20078;-73
2023/03/28 04:53:22;;;;;;;19.83;2.53;;;-0.20;99.90;;;;;;5117287;28;20054;-74
2023/03/28 04:55:49;;;;;;;14.75;2.30;;;-0.10;99.90;;;;;;5082144;28;20123;-74
2023/03/28 04:58:20;;;;;;;27.85;3.35;;;0.00;99.90;;;;;;5098989;28;20123;-72
2023/03/28 05:00:46;;;;;;;13.88;2.50;;;0.10;99.90;;;;;;5099187;28;20051;-73
2023/03/28 05:03:17;;;;;;;23.95;1.70;;;0.20;99.90;;;;;;5099637;28;20040;-73
2023/03/28 05:05:44;;;;;;;14.85;1.77;;;0.30;99.90;;;;;;5099859;28;20131;-74
2023/03/28 05:08:15;;;;;;;15.05;2.28;;;0.40;99.90;;;;;;5116948;28;20118;-74
2023/03/28 05:10:41;;;;;;;9.48;1.88;;;0.60;99.90;;;;;;5099846;28;20140;-75
2023/03/28 05:13:07;;;;;;;15.05;2.00;;;0.60;99.90;;;;;;5116947;28;20452;-72
2023/03/28 05:15:32;;;;;;;21.25;1.80;;;0.60;99.90;;;;;;5098963;28;20126;-73
2023/03/28 05:17:58;;;;;;;12.23;1.67;;;0.60;99.90;;;;;;5115927;28;20043;-73
2023/03/28 05:20:25;;;;;;;15.32;1.70;;;0.60;99.90;;;;;;5099021;28;20040;-74
2023/03/28 05:22:51;;;;;;;15.30;2.27;;;0.60;99.90;;;;;;5098901;28;20057;-73
2023/03/28 05:25:17;;;;;;;20.80;2.60;;;0.60;99.90;;;;;;5098389;28;20090;-73
2023/03/28 05:27:43;;;;;;;19.77;1.55;;;0.60;99.90;;;;;;5116618;28;20047;-73
2023/03/28 05:30:10;;;;;;;13.30;1.75;;;0.50;99.90;;;;;;5099028;28;20116;-74
2023/03/28 05:32:36;;;;;;;20.90;1.80;;;0.50;99.90;;;;;;5098608;28;20111;-73
2023/03/28 05:35:04;;;;;;;14.95;1.58;;;0.50;99.90;;;;;;5098423;28;20400;-72
2023/03/28 05:37:29;;;;;;;16.70;2.08;;;0.50;99.90;;;;;;5117086;28;20051;-73
2023/03/28 05:39:55;;;;;;;11.43;1.70;;;0.60;99.90;;;;;;5116412;28;20047;-72
2023/03/28 05:42:21;;;;;;;18.10;2.53;;;0.60;99.90;;;;;;5082286;28;20044;-74
2023/03/28 05:44:47;;;;;;;15.40;2.03;;;0.70;99.90;;;;;;5117277;28;20043;-72
2023/03/28 05:47:12;;;;;;;9.57;1.83;;;0.80;99.90;;;;;;5098282;28;20545;-73
2023/03/28 05:49:38;;;;;;;14.32;2.17;;;1.00;99.90;;;;;;5081265;28;20044;-73
2023/03/28 05:52:04;;;;;;;16.95;2.10;;;1.00;99.90;;;;;;5116074;28;20044;-73
2023/03/28 05:54:30;;;;;;;23.90;3.10;;;1.20;99.90;;;;;;5081207;28;20047;-73
2023/03/28 05:56:56;;;;;;;14.27;2.47;;;1.20;99.90;;;;;;5097733;28;20047;-73
2023/03/28 05:59:23;;;;;;;19.10;2.38;;;1.30;99.90;;;;;;5116259;28;20048;-75
2023/03/28 06:01:54;;;;;;;21.15;2.08;;;1.30;99.90;;;;;;5081837;28;20054;-74
2023/03/28 06:04:20;;;;;;;14.30;2.47;;;1.40;99.90;;;;;;5116168;28;20131;-72
2023/03/28 06:06:47;;;;;;;13.50;3.20;;;1.50;99.90;;;;;;5097844;28;20040;-74
2023/03/28 06:09:14;;;;;;;17.67;3.50;;;1.60;99.90;;;;;;5115876;28;20150;-72
2023/03/28 06:11:40;;;;;;;15.60;2.42;;;1.60;99.90;;;;;;5081186;28;20054;-74
2023/03/28 06:14:07;;;;;;;19.95;2.65;;;1.70;99.90;;;;;;5098015;28;20050;-74
2023/03/28 06:16:33;;;;;;;15.30;2.83;;;1.70;99.90;;;;;;5098730;28;20134;-72
2023/03/28 06:18:59;;;;;;;15.38;2.90;;;1.90;99.90;;;;;;5115855;28;20538;-73
2023/03/28 06:21:25;;;;;;;24.60;3.28;;;1.90;99.90;;;;;;5114626;28;20476;-74
2023/03/28 06:23:50;;;;;;;18.75;2.40;;;2.00;99.90;;;;;;5097545;28;20055;-74
2023/03/28 06:26:17;;;;;;;17.90;2.63;;;2.10;99.90;;;;;;5114475;28;20042;-72
2023/03/28 06:28:42;;;;;;;15.77;2.67;;;2.20;99.90;;;;;;5093745;28;20149;-74
2023/03/28 06:31:10;;;;;;;19.55;3.10;;;2.20;99.90;;;;;;5093938;28;20091;-74
2023/03/28 06:33:39;;;;;;;20.80;3.28;;;2.30;99.90;;;;;;5094833;28;20052;-74
2023/03/28 06:36:06;;;;;;;18.00;3.42;;;2.40;99.90;;;;;;5094880;28;20373;-73
2023/03/28 06:38:33;;;;;;;13.80;2.42;;;2.50;99.90;;;;;;5095013;28;20040;-76
2023/03/28 06:40:59;;;;;;;25.75;3.53;;;2.50;99.90;;;;;;5094438;28;20104;-74
2023/03/28 06:43:24;;;;;;;21.05;3.40;;;2.60;99.90;;;;;;5077162;28;20131;-73
2023/03/28 06:45:51;;;;;;;16.90;4.15;;;2.60;99.90;;;;;;5094818;28;20523;-74
2023/03/28 06:48:17;;;;;;;24.20;3.50;;;2.70;99.90;;;;;;5093633;28;20047;-73
2023/03/28 06:50:49;;;;;;;19.10;3.53;;;2.80;99.90;;;;;;5094378;28;20077;-74
2023/03/28 06:53:15;;;;;;;21.05;4.20;;;2.80;99.90;;;;;;5094011;28;20372;-72
2023/03/28 06:55:42;;;;;;;26.85;4.93;;;2.80;99.90;;;;;;5077301;28;20048;-75
2023/03/28 06:58:08;;;;;;;27.07;4.70;;;3.00;99.90;;;;;;5060153;28;20048;-74
2023/03/28 07:00:34;;;;;;;25.75;4.05;;;3.00;99.90;;;;;;5094265;28;20047;-74
2023/03/28 07:03:00;;;;;;;21.33;4.05;;;3.10;99.90;;;;;;5093610;28;20047;-74
2023/03/28 07:05:26;;;;;;;25.77;4.00;;;3.20;99.90;;;;;;5094471;28;20051;-73
2023/03/28 07:07:52;;;;;;;32.85;6.18;;;3.30;99.90;;;;;;5075988;28;20051;-74
2023/03/28 07:10:18;;;;;;;23.90;4.30;;;3.40;99.90;;;;;;5094495;28;20046;-74
2023/03/28 07:12:44;;;;;;;27.38;5.75;;;3.40;99.90;;;;;;5077389;28;20051;-73
2023/03/28 07:15:10;;;;;;;25.48;4.78;;;3.50;99.90;;;;;;5093967;28;20047;-74
2023/03/28 07:17:36;;;;;;;22.67;4.60;;;3.70;99.90;;;;;;5094634;28;20040;-75
2023/03/28 07:20:03;;;;;;;28.63;4.97;;;3.80;99.90;;;;;;5093164;28;20052;-73
2023/03/28 07:22:29;;;;;;;33.38;6.00;;;3.90;99.90;;;;;;5094064;28;20048;-72
2023/03/28 07:24:55;;;;;;;26.58;5.93;;;3.80;99.90;;;;;;5094108;28;20039;-73
2023/03/28 07:27:20;;;;;;;22.75;4.65;;;3.80;99.90;;;;;;5101626;28;20062;-74
2023/03/28 07:29:46;;;;;;;25.88;5.20;;;3.80;99.90;;;;;;5097035;28;20079;-74
2023/03/28 07:32:12;;;;;;;28.20;4.20;;;3.70;99.90;;;;;;5114405;28;20087;-74
2023/03/28 07:34:38;;;;;;;27.27;5.65;;;3.60;99.90;;;;;;5096177;28;20096;-73
2023/03/28 07:37:04;;;;;;;19.40;4.70;;;3.60;99.90;;;;;;5114460;28;20047;-71
2023/03/28 07:39:29;;;;;;;30.80;5.28;;;3.60;99.90;;;;;;5095950;28;20522;-73
2023/03/28 07:41:55;;;;;;;24.25;3.88;;;3.50;99.90;;;;;;5113971;28;20130;-72
2023/03/28 07:44:21;;;;;;;22.02;4.10;;;3.50;99.90;;;;;;5114242;28;20047;-69
2023/03/28 07:46:47;;;;;;;27.95;5.38;;;3.60;99.90;;;;;;5096954;28;20047;-72
2023/03/28 07:49:14;;;;;;;24.38;4.82;;;3.60;99.90;;;;;;5114028;28;20044;-73
2023/03/28 07:51:40;;;;;;;21.15;4.15;;;3.60;99.90;;;;;;5096232;28;20069;-71
2023/03/28 07:54:08;;;;;;;31.38;5.43;;;3.80;99.90;;;;;;5113885;28;20054;-71
2023/03/28 07:56:34;;;;;;;31.73;6.50;;;3.80;99.90;;;;;;5113958;28;20111;-72
2023/03/28 07:59:00;;;;;;;22.20;4.85;;;3.90;99.90;;;;;;5096033;28;20122;-72
2023/03/28 08:01:26;;;;;;;24.83;4.40;;;4.00;99.90;;;;;;5114349;28;20126;-73
2023/03/28 08:03:52;;;;;;;27.50;5.57;;;4.10;99.90;;;;;;5114046;28;20118;-71
2023/03/28 08:06:18;;;;;;;21.90;5.10;;;4.20;99.90;;;;;;5079550;28;20070;-72
2023/03/28 08:08:44;;;;;;;24.10;4.18;;;4.40;99.90;;;;;;5113870;28;20433;-71
2023/03/28 08:11:12;;;;;;;23.30;4.65;;;4.50;99.90;;;;;;5113892;28;20399;-71
2023/03/28 08:13:37;;;;;;;15.10;4.40;;;4.60;99.90;;;;;;5113896;28;20100;-72
2023/03/28 08:16:03;;;;;;;25.60;4.28;;;4.70;99.90;;;;;;5096697;28;20130;-72
2023/03/28 08:18:29;;;;;;;20.65;3.65;;;4.80;99.90;;;;;;5095504;28;20050;-72
2023/03/28 08:21:03;;;;;;;19.17;4.40;;;4.80;99.90;;;;;;5065881;28;20082;-73
2023/03/28 08:23:29;;;;;;;18.13;3.33;;;4.90;99.90;;;;;;5118711;28;20074;-71
2023/03/28 08:26:03;;;;;;;22.17;3.88;;;4.90;99.90;;;;;;5099661;28;20040;-73
2023/03/28 08:28:34;;;;;;;16.60;3.17;;;5.10;99.90;;;;;;5082661;28;20048;-72
2023/03/28 08:31:00;;;;;;;15.02;3.50;;;5.20;99.90;;;;;;5100176;28;20487;-72
2023/03/28 08:33:27;;;;;;;13.10;3.17;;;5.30;99.90;;;;;;5117687;28;20058;-70
2023/03/28 08:35:54;;;;;;;19.63;3.40;;;5.40;99.90;;;;;;5083198;28;20048;-71
2023/03/28 08:38:20;;;;;;;13.88;3.95;;;5.50;99.90;;;;;;5117783;28;20051;-72
2023/03/28 08:41:20;;;;;;;19.00;3.60;;;5.50;99.90;;;;;;5099579;28;20116;-71
2023/03/28 08:44:16;;;;;;;16.08;3.63;;;5.70;99.90;;;;;;5099847;28;20055;-73
2023/03/28 08:46:45;;;;;;;23.50;3.40;;;5.80;99.90;;;;;;5082746;28;20048;-72
2023/03/28 08:49:15;;;;;;;15.10;3.30;;;5.90;99.90;;;;;;5099086;28;20073;-72
2023/03/28 08:52:01;;;;;;;10.82;2.47;;;6.00;99.90;;;;;;5099738;28;20235;-72
2023/03/28 08:54:43;;;;;;;20.23;2.75;;;6.10;99.90;;;;;;5083253;28;20379;-73
2023/03/28 08:57:18;;;;;;;16.50;2.60;;;6.20;99.90;;;;;;5117697;28;20464;-74
2023/03/28 09:00:13;;;;;;;7.75;1.20;;;6.30;99.90;;;;;;5099864;28;20040;-73
2023/03/28 09:02:41;;;;;;;15.13;2.05;;;6.40;99.90;;;;;;5099792;28;20066;-71
2023/03/28 09:05:16;;;;;;;10.13;1.70;;;6.50;99.90;;;;;;5117107;28;20046;-72
2023/03/28 09:07:54;;;;;;;13.52;1.55;;;6.70;99.90;;;;;;5117523;28;20048;-71
2023/03/28 09:10:29;;;;;;;6.38;1.00;;;6.80;99.90;;;;;;5098683;28;20043;-71
2023/03/28 09:13:05;;;;;;;7.57;0.73;;;6.90;99.90;;;;;;5098879;28;20081;-73
2023/03/28 09:15:40;;;;;;;13.33;0.90;;;7.00;99.90;;;;;;5082861;28;20054;-71
2023/03/28 09:18:09;;;;;;;11.50;1.27;;;7.20;99.90;;;;;;5117782;28;20043;-70
2023/03/28 09:20:50;;;;;;;7.50;1.08;;;7.10;99.90;;;;;;5082431;28;20137;-71
2023/03/28 09:23:25;;;;;;;11.07;0.90;;;7.20;99.90;;;;;;5116694;28;20371;-71
2023/03/28 09:26:00;;;;;;;7.18;1.02;;;7.10;99.90;;;;;;5116733;28;20126;-71
2023/03/28 09:28:44;;;;;;;7.43;0.60;;;7.10;99.90;;;;;;5116651;28;20054;-70
2023/03/28 09:31:13;;;;;;;13.05;1.30;;;7.30;99.90;;;;;;5116502;28;20044;-72
2023/03/28 09:33:42;;;;;;;7.97;0.93;;;7.50;99.90;;;;;;5098674;28;20043;-71
2023/03/28 09:36:14;;;;;;;6.30;0.88;;;7.70;99.90;;;;;;5116513;28;20051;-74
2023/03/28 09:38:47;;;;;;;5.30;0.70;;;8.00;99.90;;;;;;5116456;28;20040;-70
2023/03/28 09:41:22;;;;;;;11.35;1.92;;;8.20;99.90;;;;;;5116193;28;20554;-71
2023/03/28 09:43:52;;;;;;;9.10;0.70;;;8.20;99.90;;;;;;5116260;28;20103;-72
2023/03/28 09:46:38;;;;;;;9.15;1.25;;;8.40;99.90;;;;;;5116676;28;20191;-72
2023/03/28 09:49:04;;;;;;;12.65;2.10;;;8.40;99.90;;;;;;5098137;28;20082;-71
2023/03/28 09:51:30;;;;;;;9.20;1.50;;;8.50;99.90;;;;;;5081449;28;20105;-71
2023/03/28 09:53:56;;;;;;;9.23;1.23;;;8.30;99.90;;;;;;5116126;28;20047;-72
2023/03/28 09:56:28;;;;;;;7.68;1.90;;;8.40;99.90;;;;;;5098189;28;20043;-72
2023/03/28 09:59:00;;;;;;;7.97;0.85;;;8.50;99.90;;;;;;5080922;28;20122;-73
2023/03/28 10:01:31;;;;;;;14.30;1.48;;;8.60;99.90;;;;;;5116093;28;20048;-72
2023/03/28 10:03:58;;;;;;;5.63;0.65;;;8.60;99.90;;;;;;5098645;28;20047;-72
2023/03/28 10:06:28;;;;;;;9.88;0.88;;;8.40;99.90;;;;;;5081417;28;20046;-71
2023/03/28 10:09:12;;;;;;;7.45;0.63;;;8.30;99.90;;;;;;5097385;28;20047;-72
2023/03/28 10:11:56;;;;;;;8.57;1.02;;;8.10;99.90;;;;;;5116424;28;20039;-70
2023/03/28 10:14:40;;;;;;;9.18;0.85;;;7.90;99.90;;;;;;5116361;28;20360;-72
2023/03/28 10:17:35;;;;;;;8.90;1.08;;;8.00;99.90;;;;;;5098049;28;20096;-72
2023/03/28 10:20:22;;;;;;;12.85;1.20;;;8.00;99.90;;;;;;5097272;28;20122;-72
2023/03/28 10:22:50;;;;;;;12.82;0.95;;;8.00;99.90;;;;;;5116329;28;20393;-72
2023/03/28 10:25:41;;;;;;;10.10;1.45;;;8.20;99.90;;;;;;5115539;28;20122;-71
2023/03/28 10:28:19;;;;;;;6.38;1.10;;;8.30;99.90;;;;;;5097458;28;20051;-71
2023/03/28 10:30:53;;;;;;;9.25;1.25;;;8.30;99.90;;;;;;5115477;28;20544;-70
2023/03/28 10:33:23;;;;;;;11.82;1.35;;;8.20;99.90;;;;;;5097207;28;20039;-71
2023/03/28 10:36:05;;;;;;;10.55;1.42;;;8.40;99.90;;;;;;5081262;28;20041;-71
2023/03/28 10:38:44;;;;;;;9.32;1.20;;;8.40;99.90;;;;;;5081097;28;20122;-72
2023/03/28 10:41:18;;;;;;;11.48;1.15;;;8.50;99.90;;;;;;5116182;28;20451;-71
2023/03/28 10:43:44;;;;;;;6.32;0.88;;;8.60;99.90;;;;;;5097266;28;20049;-74
2023/03/28 10:46:14;;;;;;;7.13;0.95;;;8.50;99.90;;;;;;5115337;28;20134;-72
2023/03/28 10:48:45;;;;;;;10.65;1.25;;;8.80;99.90;;;;;;5114762;28;20039;-71
2023/03/28 10:51:20;;;;;;;9.00;1.52;;;9.00;99.90;;;;;;5097367;28;20096;-72
2023/03/28 10:53:55;;;;;;;7.60;1.40;;;9.10;99.90;;;;;;5114942;28;20124;-71
2023/03/28 10:56:40;;;;;;;6.72;1.50;;;9.20;99.90;;;;;;5115071;28;20040;-70
2023/03/28 10:59:18;;;;;;;11.27;1.75;;;9.40;99.90;;;;;;5096890;28;20480;-71
2023/03/28 11:01:59;;;;;;;11.43;1.30;;;9.60;99.90;;;;;;5114927;28;20066;-72
2023/03/28 11:04:46;;;;;;;6.30;1.02;;;9.90;99.90;;;;;;5115607;28;20355;-72
2023/03/28 11:07:20;;;;;;;5.20;0.90;;;10.00;99.90;;;;;;5097302;28;20040;-71
2023/03/28 11:10:09;;;;;;;7.32;1.20;;;9.80;99.90;;;;;;5113271;28;20144;-72
2023/03/28 11:12:54;;;;;;;6.97;1.15;;;9.60;99.90;;;;;;5096960;28;20045;-73
2023/03/28 11:15:46;;;;;;;10.73;1.50;;;9.50;98.20;;;;;;5097544;28;20126;-74
2023/03/28 11:18:27;;;;;;;7.70;0.82;;;9.20;99.50;;;;;;5096553;28;20063;-71
2023/03/28 11:21:11;;;;;;;12.98;1.17;;;9.20;99.70;;;;;;5096991;28;20126;-72
2023/03/28 11:23:47;;;;;;;8.05;0.93;;;9.10;99.90;;;;;;5114557;28;20043;-73
2023/03/28 11:26:30;;;;;;;6.55;1.00;;;9.30;99.70;;;;;;5096763;28;20058;-72
2023/03/28 11:29:15;;;;;;;8.52;1.05;;;9.10;99.90;;;;;;5113856;28;20047;-73
2023/03/28 11:32:14;;;;;;;6.30;1.17;;;9.20;99.90;;;;;;5095867;28;20082;-72
2023/03/28 11:34:57;;;;;;;8.48;1.30;;;9.10;99.90;;;;;;5075456;28;20502;-72
2023/03/28 11:37:35;;;;;;;9.25;1.33;;;9.20;99.80;;;;;;5079934;28;20502;-72
2023/03/28 11:40:06;;;;;;;7.80;1.25;;;9.00;97.80;;;;;;5096006;28;20043;-73
2023/03/28 11:42:44;;;;;;;9.88;2.20;;;9.00;98.70;;;;;;5114469;28;20494;-73
2023/03/28 11:45:28;;;;;;;14.20;1.60;;;9.10;98.50;;;;;;5114859;28;20423;-72
2023/03/28 11:48:14;;;;;;;5.90;1.00;;;9.20;98.50;;;;;;5096400;28;20104;-72
2023/03/28 11:51:02;;;;;;;9.80;1.70;;;9.20;99.90;;;;;;5113379;28;20051;-71
2023/03/28 11:53:38;;;;;;;12.20;1.40;;;9.00;97.60;;;;;;5114322;28;20047;-73
2023/03/28 11:56:16;;;;;;;7.45;1.15;;;9.20;99.30;;;;;;5096251;28;20454;-73
2023/03/28 11:58:47;;;;;;;9.25;1.35;;;9.30;99.30;;;;;;5113957;28;20479;-73
2023/03/28 12:01:27;;;;;;;6.65;1.50;;;9.30;98.40;;;;;;5095911;28;20067;-73
2023/03/28 12:04:17;;;;;;;8.20;2.08;;;9.20;99.20;;;;;;5114121;28;20112;-74
2023/03/28 12:07:02;;;;;;;7.32;1.40;;;9.10;98.80;;;;;;5057311;28;20123;-73
2023/03/28 12:09:47;;;;;;;11.55;1.40;;;9.40;99.90;;;;;;5114368;28;20043;-74
2023/03/28 12:12:18;;;;;;;11.15;2.13;;;9.40;97.90;;;;;;5097183;28;20082;-74
2023/03/28 12:14:55;;;;;;;8.05;1.55;;;9.50;99.90;;;;;;5095476;28;20093;-72
2023/03/28 12:17:30;;;;;;;7.93;1.50;;;9.30;96.00;;;;;;5095976;28;20105;-73
2023/03/28 12:19:56;;;;;;;11.10;1.48;;;9.00;96.10;;;;;;5078923;28;20046;-73
2023/03/28 12:22:52;;;;;;;9.57;1.55;;;9.20;98.90;;;;;;5095558;28;20131;-75
2023/03/28 12:25:30;;;;;;;7.63;1.33;;;9.30;98.90;;;;;;5094000;28;20059;-73
2023/03/28 12:28:25;;;;;;;12.30;1.75;;;9.40;99.90;;;;;;5113445;28;20059;-74
2023/03/28 12:31:09;;;;;;;8.80;1.30;;;9.00;97.40;;;;;;5114464;28;20154;-74
2023/03/28 12:33:59;;;;;;;11.93;2.00;;;9.20;98.00;;;;;;5096081;28;20496;-76
2023/03/28 12:36:48;;;;;;;9.73;1.45;;;9.20;98.70;;;;;;5114158;28;20473;-74
2023/03/28 12:39:51;;;;;;;11.88;1.95;;;9.20;97.00;;;;;;5113622;28;20044;-74
2023/03/28 12:42:20;;;;;;;8.07;1.80;;;9.00;95.70;;;;;;5095447;28;20054;-73
2023/03/28 12:44:59;;;;;;;6.72;1.70;;;8.90;96.20;;;;;;5112318;28;20408;-74
2023/03/28 12:47:40;;;;;;;8.05;2.67;;;9.00;96.50;;;;;;5095225;28;20122;-74
2023/03/28 12:50:13;;;;;;;6.47;1.48;;;9.00;95.50;;;;;;5094759;28;20426;-72
2023/03/28 12:52:42;;;;;;;7.38;1.50;;;9.10;97.30;;;;;;5114443;28;20043;-72
2023/03/28 12:55:23;;;;;;;6.95;1.88;;;9.10;96.60;;;;;;5078826;28;20101;-72
2023/03/28 12:57:50;;;;;;;6.95;1.55;;;9.30;96.40;;;;;;5095305;28;20126;-73
2023/03/28 13:00:25;;;;;;;;;;;9.10;94.30;;;;;;5095513;28;20497;-72
2023/03/28 13:03:04;;;;;;;12.05;1.88;;;9.20;95.90;;;;;;5113413;28;19919;-74
2023/03/28 13:06:11;;;;;;;5.68;1.88;;;9.40;96.50;;;;;;5113568;28;20407;-74
2023/03/28 13:09:12;;;;;;;8.43;1.60;;;9.50;95.30;;;;;;5076237;28;20059;-73
2023/03/28 13:11:57;;;;;;;8.38;1.90;;;9.60;96.30;;;;;;5098729;28;20044;-74
2023/03/28 13:14:26;;;;;;;7.10;2.40;;;9.70;95.80;;;;;;5117710;28;20397;-73